HS Bizet — A8MI3 — position and weather

sailwx.info

Track history (hours):
 
Tides and Currents Weather Stations Pressure Air Temp Water Temp Dewpoint Dewpoint Depression Visibility Wind Speed Wind Dir Waves Ship Positions

HS Bizet

Last reported at 2017-Jan-18 11:20 UTC. Time now 2017-Jan-18 18:20 UTC.
Position N 35°48' W 124°56'.

Length 246 m; draft 10 m.

Type: Ship (hazmat cat A). MMSI: 636091349.

Date/timePositionNaut miles runAvg speedWind from/ knotsBaromVisibWave heightAir tempDewpointWater temp
2017-Jan-18 11:20N 35°48' W 124°56'810.2
2017-Jan-18 10:33N 35°42' W 125°03'2110.3
2017-Jan-18 08:32N 35°26' W 125°19'1010.3
2017-Jan-18 07:32N 35°19' W 125°28'4510.0
2017-Jan-18 03:05N 34°40' W 125°56'510.3
2017-Jan-18 02:33N 34°35' W 125°58'1110.5
2017-Jan-18 01:33N 34°26' W 126°03'1913.6
2017-Jan-18 00:10N 34°09' W 126°13'5114.0
2017-Jan-17 20:33N 33°22' W 126°37'10014.0
2017-Jan-17 13:25N 31°51' W 127°25'  
Track history (hours):
 
Tides and Currents Weather Stations Pressure Air Temp Water Temp Dewpoint Dewpoint Depression Visibility Wind Speed Wind Dir Waves Ship Positions

HS Bizet

Last reported at 2017-Jan-18 11:20 UTC. Time now 2017-Jan-18 18:20 UTC.
Position N 35°48' W 124°56'.

Length 246 m; draft 10 m.

Type: Ship (hazmat cat A). MMSI: 636091349.

Date/timePositionNaut miles runAvg speedWind from/ knotsBaromVisibWave heightAir tempDewpointWater temp
2017-Jan-18 11:20N 35°48' W 124°56'810.2
2017-Jan-18 10:33N 35°42' W 125°03'2110.3
2017-Jan-18 08:32N 35°26' W 125°19'1010.3
2017-Jan-18 07:32N 35°19' W 125°28'4510.0
2017-Jan-18 03:05N 34°40' W 125°56'510.3
2017-Jan-18 02:33N 34°35' W 125°58'1110.5
2017-Jan-18 01:33N 34°26' W 126°03'1913.6
2017-Jan-18 00:10N 34°09' W 126°13'5114.0
2017-Jan-17 20:33N 33°22' W 126°37'10014.0
2017-Jan-17 13:25N 31°51' W 127°25'  

Dump ship's entire track history